sensor_id;sensor_type;location;lat;lon;timestamp;pressure;altitude;pressure_sealevel;temperature;humidity
77212;BME280;66206;0.000;0.000;2024-03-08T07:39:11;97696.73;;;18.38;30.34
77212;BME280;66206;0.000;0.000;2024-03-08T07:41:37;97690.13;;;20.49;28.02
77212;BME280;66206;0.000;0.000;2024-03-08T07:44:02;97688.99;;;22.36;25.87
77212;BME280;66206;0.000;0.000;2024-03-08T07:46:28;97681.85;;;23.80;24.59
77212;BME280;66206;0.000;0.000;2024-03-08T07:48:53;97681.30;;;24.19;23.97
77212;BME280;66206;0.000;0.000;2024-03-08T07:51:19;97680.25;;;24.57;23.81
77212;BME280;66206;0.000;0.000;2024-03-08T07:53:45;97679.83;;;24.97;23.15
77212;BME280;66206;0.000;0.000;2024-03-08T07:56:10;97683.64;;;25.18;23.14
77212;BME280;66206;0.000;0.000;2024-03-08T07:58:36;97678.52;;;25.14;22.95
77212;BME280;66206;0.000;0.000;2024-03-08T08:01:02;97678.67;;;25.03;23.44
77212;BME280;66206;0.000;0.000;2024-03-08T08:03:27;97671.90;;;25.60;22.76
77212;BME280;66206;0.000;0.000;2024-03-08T08:05:53;97672.32;;;25.44;23.17
77212;BME280;66206;0.000;0.000;2024-03-08T08:08:18;97672.16;;;25.71;22.71
77212;BME280;66206;0.000;0.000;2024-03-08T08:10:44;97666.47;;;25.48;22.88
77212;BME280;66206;0.000;0.000;2024-03-08T08:13:10;97661.66;;;25.38;23.39
77212;BME280;66206;0.000;0.000;2024-03-08T08:15:35;97661.59;;;23.37;20.79
77212;BME280;66206;0.000;0.000;2024-03-08T08:18:01;97664.23;;;23.00;19.74
77212;BME280;66206;0.000;0.000;2024-03-08T08:20:26;97661.50;;;23.83;20.50
77212;BME280;66206;0.000;0.000;2024-03-08T08:22:52;97656.78;;;24.31;20.32
77212;BME280;66206;0.000;0.000;2024-03-08T08:25:18;97653.68;;;25.12;20.61
77212;BME280;66206;0.000;0.000;2024-03-08T08:27:43;97654.14;;;24.88;21.01
77212;BME280;66206;0.000;0.000;2024-03-08T08:30:09;97647.97;;;25.10;21.20
77212;BME280;66206;0.000;0.000;2024-03-08T08:32:35;97644.46;;;25.15;21.51
77212;BME280;66206;0.000;0.000;2024-03-08T08:35:01;97639.62;;;26.40;21.10
77212;BME280;66206;0.000;0.000;2024-03-08T08:37:26;97638.88;;;26.31;21.18
77212;BME280;66206;0.000;0.000;2024-03-08T08:39:52;97638.12;;;26.20;21.06
77212;BME280;66206;0.000;0.000;2024-03-08T08:42:17;97635.66;;;26.60;20.83
77212;BME280;66206;0.000;0.000;2024-03-08T08:44:43;97631.37;;;25.94;21.53
77212;BME280;66206;0.000;0.000;2024-03-08T08:47:09;97626.68;;;26.24;21.03
77212;BME280;66206;0.000;0.000;2024-03-08T08:49:34;97624.87;;;25.93;21.55
77212;BME280;66206;0.000;0.000;2024-03-08T08:52:00;97622.96;;;26.22;21.72
77212;BME280;66206;0.000;0.000;2024-03-08T08:54:26;97619.95;;;26.03;21.75
77212;BME280;66206;0.000;0.000;2024-03-08T08:56:51;97615.13;;;26.13;21.74
77212;BME280;66206;0.000;0.000;2024-03-08T08:59:17;97614.10;;;26.13;21.33
77212;BME280;66206;0.000;0.000;2024-03-08T09:01:43;97608.24;;;26.33;21.44
77212;BME280;66206;0.000;0.000;2024-03-08T09:04:08;97608.47;;;26.38;21.72
77212;BME280;66206;0.000;0.000;2024-03-08T09:06:34;97606.61;;;26.06;21.60
77212;BME280;66206;0.000;0.000;2024-03-08T09:09:00;97601.97;;;25.81;21.85
77212;BME280;66206;0.000;0.000;2024-03-08T09:11:25;97603.56;;;26.22;21.63
77212;BME280;66206;0.000;0.000;2024-03-08T09:13:51;97596.23;;;25.94;22.03
77212;BME280;66206;0.000;0.000;2024-03-08T09:16:17;97595.36;;;25.93;21.95
77212;BME280;66206;0.000;0.000;2024-03-08T09:18:42;97590.02;;;26.17;21.92
77212;BME280;66206;0.000;0.000;2024-03-08T09:21:08;97596.65;;;26.18;21.78
77212;BME280;66206;0.000;0.000;2024-03-08T09:23:34;97585.74;;;26.55;21.55
77212;BME280;66206;0.000;0.000;2024-03-08T09:25:59;97592.00;;;26.79;21.32
77212;BME280;66206;0.000;0.000;2024-03-08T09:28:25;97594.35;;;26.86;21.30
77212;BME280;66206;0.000;0.000;2024-03-08T09:30:50;97593.01;;;26.81;21.22
77212;BME280;66206;0.000;0.000;2024-03-08T09:33:16;97586.75;;;26.79;21.42
77212;BME280;66206;0.000;0.000;2024-03-08T09:35:42;97580.35;;;26.80;21.45
77212;BME280;66206;0.000;0.000;2024-03-08T09:38:07;97577.26;;;26.89;21.34
77212;BME280;66206;0.000;0.000;2024-03-08T09:40:33;97578.36;;;26.60;21.49
77212;BME280;66206;0.000;0.000;2024-03-08T09:42:58;97570.85;;;26.44;21.77
77212;BME280;66206;0.000;0.000;2024-03-08T09:45:24;97570.51;;;26.53;21.71
77212;BME280;66206;0.000;0.000;2024-03-08T09:47:50;97570.62;;;26.92;21.60
77212;BME280;66206;0.000;0.000;2024-03-08T09:50:15;97570.88;;;26.77;21.68
77212;BME280;66206;0.000;0.000;2024-03-08T09:52:41;97575.92;;;26.83;21.85
77212;BME280;66206;0.000;0.000;2024-03-08T09:55:07;97569.21;;;26.67;21.72
77212;BME280;66206;0.000;0.000;2024-03-08T09:57:34;97578.95;;;26.59;21.81
77212;BME280;66206;0.000;0.000;2024-03-08T10:00:01;97562.24;;;26.17;22.15
77212;BME280;66206;0.000;0.000;2024-03-08T10:02:27;97563.03;;;26.47;21.67
77212;BME280;66206;0.000;0.000;2024-03-08T10:04:54;97560.87;;;26.36;21.67
77212;BME280;66206;0.000;0.000;2024-03-08T10:07:19;97553.04;;;26.64;21.52
77212;BME280;66206;0.000;0.000;2024-03-08T10:09:45;97554.24;;;26.81;21.42
77212;BME280;66206;0.000;0.000;2024-03-08T10:12:10;97548.81;;;26.98;21.25
77212;BME280;66206;0.000;0.000;2024-03-08T10:14:38;97544.35;;;26.93;21.31
77212;BME280;66206;0.000;0.000;2024-03-08T10:17:04;97545.45;;;26.96;21.27
77212;BME280;66206;0.000;0.000;2024-03-08T10:19:30;97539.12;;;27.01;21.24
77212;BME280;66206;0.000;0.000;2024-03-08T10:21:55;97539.54;;;27.23;21.05
77212;BME280;66206;0.000;0.000;2024-03-08T10:24:22;97537.88;;;27.13;21.13
77212;BME280;66206;0.000;0.000;2024-03-08T10:26:47;97535.57;;;27.29;20.95
77212;BME280;66206;0.000;0.000;2024-03-08T10:29:13;97543.49;;;27.12;21.09
77212;BME280;66206;0.000;0.000;2024-03-08T10:31:39;97533.97;;;27.12;21.08
77212;BME280;66206;0.000;0.000;2024-03-08T10:34:04;97532.47;;;26.87;21.27
77212;BME280;66206;0.000;0.000;2024-03-08T10:36:30;97524.97;;;26.93;21.23
77212;BME280;66206;0.000;0.000;2024-03-08T10:38:56;97520.33;;;26.69;21.44
77212;BME280;66206;0.000;0.000;2024-03-08T10:41:22;97518.57;;;27.12;21.13
77212;BME280;66206;0.000;0.000;2024-03-08T10:43:56;97517.71;;;27.13;21.08
77212;BME280;66206;0.000;0.000;2024-03-08T11:11:04;97487.17;;;22.36;24.15
77212;BME280;66206;0.000;0.000;2024-03-08T11:13:33;97481.90;;;23.16;23.50
77212;BME280;66206;0.000;0.000;2024-03-08T11:15:59;97476.27;;;23.89;22.75
77212;BME280;66206;0.000;0.000;2024-03-08T11:18:25;97469.93;;;24.15;22.47
77212;BME280;66206;0.000;0.000;2024-03-08T11:20:53;97471.68;;;24.20;22.51
77212;BME280;66206;0.000;0.000;2024-03-08T11:23:20;97464.77;;;24.46;22.31
77212;BME280;66206;0.000;0.000;2024-03-08T11:25:48;97456.16;;;24.43;22.29
77212;BME280;66206;0.000;0.000;2024-03-08T11:28:15;97463.43;;;24.50;22.30
77212;BME280;66206;0.000;0.000;2024-03-08T11:30:42;97461.07;;;24.54;22.22
77212;BME280;66206;0.000;0.000;2024-03-08T11:33:10;97451.41;;;24.49;22.23
77212;BME280;66206;0.000;0.000;2024-03-08T11:35:36;97448.46;;;24.34;22.36
77212;BME280;66206;0.000;0.000;2024-03-08T11:38:02;97441.84;;;24.26;22.47
77212;BME280;66206;0.000;0.000;2024-03-08T11:40:28;97433.92;;;24.14;22.56
77212;BME280;66206;0.000;0.000;2024-03-08T11:42:54;97428.81;;;24.07;22.64
77212;BME280;66206;0.000;0.000;2024-03-08T11:45:20;97440.46;;;23.98;22.74
77212;BME280;66206;0.000;0.000;2024-03-08T11:47:46;97428.06;;;23.55;23.06
77212;BME280;66206;0.000;0.000;2024-03-08T11:50:13;97422.87;;;23.56;23.10
77212;BME280;66206;0.000;0.000;2024-03-08T11:52:39;97417.01;;;23.62;23.06
77212;BME280;66206;0.000;0.000;2024-03-08T11:55:05;97411.78;;;23.57;23.11
77212;BME280;66206;0.000;0.000;2024-03-08T11:57:31;97404.72;;;23.63;23.04
77212;BME280;66206;0.000;0.000;2024-03-08T11:59:57;97412.96;;;23.39;23.23
77212;BME280;66206;0.000;0.000;2024-03-08T12:02:24;97399.66;;;23.24;23.37
